createdAt,value
2018-02-09T00:01:48.412Z,-1.00
2018-02-09T00:04:14.620Z,-0.90
2018-02-09T00:06:41.589Z,-1.00
2018-02-09T00:09:07.799Z,-1.00
2018-02-09T00:11:34.766Z,-1.00
2018-02-09T00:14:00.965Z,-1.10
2018-02-09T00:16:27.241Z,-1.00
2018-02-09T00:18:53.497Z,-1.00
2018-02-09T00:21:19.685Z,-1.00
2018-02-09T00:23:45.914Z,-1.00
2018-02-09T00:26:12.123Z,-1.00
2018-02-09T00:28:39.076Z,-1.10
2018-02-09T00:31:06.013Z,-1.10
2018-02-09T00:33:32.252Z,-1.10
2018-02-09T00:35:59.184Z,-1.10
2018-02-09T00:38:25.421Z,-1.10
2018-02-09T00:40:51.625Z,-1.10
2018-02-09T00:43:17.862Z,-1.10
2018-02-09T00:45:44.092Z,-1.10
2018-02-09T00:48:10.291Z,-1.10
2018-02-09T00:50:36.508Z,-1.10
2018-02-09T00:53:02.696Z,-1.00
2018-02-09T00:55:28.950Z,-1.00
2018-02-09T00:57:55.157Z,-1.00
2018-02-09T01:00:21.384Z,-1.00
2018-02-09T01:02:47.625Z,-1.00
2018-02-09T01:05:14.568Z,-1.00
2018-02-09T01:07:41.523Z,-1.00
2018-02-09T01:10:08.460Z,-1.10
2018-02-09T01:12:35.431Z,-1.10
2018-02-09T01:15:01.628Z,-1.10
2018-02-09T01:17:27.849Z,-1.10
2018-02-09T01:19:54.050Z,-1.10
2018-02-09T01:22:20.266Z,-1.10
2018-02-09T01:24:46.489Z,-1.00
2018-02-09T01:27:12.708Z,-1.00
2018-02-09T01:29:38.929Z,-1.00
2018-02-09T01:32:05.872Z,-0.90
2018-02-09T01:34:32.861Z,-0.90
2018-02-09T01:36:59.098Z,-0.90
2018-02-09T01:39:25.333Z,-0.90
2018-02-09T01:41:51.540Z,-0.90
2018-02-09T01:44:17.781Z,-0.90
2018-02-09T01:46:43.988Z,-0.90
2018-02-09T01:49:10.215Z,-0.90
2018-02-09T01:54:09.372Z,-0.90
2018-02-09T01:56:35.604Z,-0.90
2018-02-09T01:59:01.809Z,-0.90
2018-02-09T02:01:28.045Z,-0.90
2018-02-09T02:03:54.248Z,-1.00
2018-02-09T02:06:20.473Z,-1.10
2018-02-09T02:08:46.680Z,-1.10
2018-02-09T02:11:13.648Z,-1.10
2018-02-09T02:13:40.589Z,-1.10
2018-02-09T02:16:07.553Z,-1.00
2018-02-09T02:18:33.774Z,-1.10
2018-02-09T02:20:59.971Z,-1.00
2018-02-09T02:23:26.213Z,-1.00
2018-02-09T02:25:53.161Z,-1.00
2018-02-09T02:28:20.118Z,-1.00
2018-02-09T02:30:47.064Z,-1.00
2018-02-09T02:33:14.036Z,-1.00
2018-02-09T02:35:40.288Z,-1.10
2018-02-09T02:38:06.545Z,-1.00
2018-02-09T02:40:32.777Z,-1.00
2018-02-09T02:42:59.051Z,-1.10
2018-02-09T02:45:25.254Z,-1.10
2018-02-09T02:47:52.225Z,-1.10
2018-02-09T02:50:18.453Z,-1.10
2018-02-09T02:52:44.661Z,-1.10
2018-02-09T02:55:11.631Z,-1.10
2018-02-09T02:57:37.840Z,-1.20
2018-02-09T03:00:04.800Z,-1.20
2018-02-09T03:02:31.033Z,-1.30
2018-02-09T03:04:57.244Z,-1.30
2018-02-09T03:07:24.216Z,-1.30
2018-02-09T03:09:50.425Z,-1.40
2018-02-09T03:12:17.389Z,-1.50
2018-02-09T03:14:43.586Z,-1.50
2018-02-09T03:17:09.820Z,-1.50
2018-02-09T03:19:36.025Z,-1.60
2018-02-09T03:22:02.245Z,-1.60
2018-02-09T03:24:28.468Z,-1.60
2018-02-09T03:26:54.673Z,-1.50
2018-02-09T03:29:20.888Z,-1.50
2018-02-09T03:31:47.087Z,-1.50
2018-02-09T03:34:13.309Z,-1.50
2018-02-09T03:36:39.508Z,-1.50
2018-02-09T03:39:05.740Z,-1.40
2018-02-09T03:41:32.014Z,-1.40
2018-02-09T03:43:58.995Z,-1.40
2018-02-09T03:46:25.220Z,-1.40
2018-02-09T03:48:56.471Z,-1.40
2018-02-09T03:51:25.821Z,-1.50
2018-02-09T03:53:54.246Z,-1.50
2018-02-09T03:56:23.255Z,-1.50
2018-02-09T03:58:49.461Z,-1.60
2018-02-09T04:01:16.476Z,-1.60
2018-02-09T04:03:42.708Z,-1.60
2018-02-09T04:06:08.948Z,-1.60
2018-02-09T04:08:35.149Z,-1.60
2018-02-09T04:11:01.380Z,-1.50
2018-02-09T04:13:27.576Z,-1.50
2018-02-09T04:15:53.797Z,-1.60
2018-02-09T04:18:20.124Z,-1.50
2018-02-09T04:20:47.150Z,-1.40
2018-02-09T04:23:13.349Z,-1.50
2018-02-09T04:25:39.645Z,-1.40
2018-02-09T04:28:05.868Z,-1.40
2018-02-09T04:30:32.088Z,-1.30
2018-02-09T04:32:59.023Z,-1.40
2018-02-09T04:35:25.248Z,-1.40
2018-02-09T04:37:53.573Z,-1.50
2018-02-09T04:40:19.801Z,-1.60
2018-02-09T04:42:46.092Z,-1.60
2018-02-09T04:45:12.370Z,-1.60
2018-02-09T04:47:39.434Z,-1.60
2018-02-09T04:50:05.658Z,-1.60
2018-02-09T04:52:32.700Z,-1.60
2018-02-09T04:54:58.934Z,-1.50
2018-02-09T04:57:25.141Z,-1.50
2018-02-09T05:00:04.794Z,-1.50
2018-02-09T05:02:31.173Z,-1.60
2018-02-09T05:04:57.590Z,-1.60
2018-02-09T05:07:23.978Z,-1.60
2018-02-09T05:09:50.398Z,-1.60
2018-02-09T05:12:17.519Z,-1.60
2018-02-09T05:14:43.982Z,-1.70
2018-02-09T05:17:11.118Z,-1.60
2018-02-09T05:19:37.517Z,-1.60
2018-02-09T05:22:03.910Z,-1.60
2018-02-09T05:24:31.057Z,-1.50
2018-02-09T05:26:58.201Z,-1.40
2018-02-09T05:29:25.347Z,-1.40
2018-02-09T05:31:52.478Z,-1.40
2018-02-09T05:34:18.889Z,-1.40
2018-02-09T05:36:45.261Z,-1.30
2018-02-09T05:39:11.667Z,-1.30
2018-02-09T05:41:38.074Z,-1.30
2018-02-09T05:44:04.453Z,-1.30
2018-02-09T05:46:30.848Z,-1.30
2018-02-09T05:48:57.228Z,-1.30
2018-02-09T05:51:23.653Z,-1.40
2018-02-09T05:53:50.033Z,-1.50
2018-02-09T05:56:16.426Z,-1.50
2018-02-09T05:58:42.823Z,-1.50
2018-02-09T06:01:09.253Z,-1.60
2018-02-09T06:03:35.658Z,-1.50
2018-02-09T06:06:09.010Z,-1.50
2018-02-09T06:08:35.450Z,-1.50
2018-02-09T06:11:01.807Z,-1.40
2018-02-09T06:13:28.942Z,-1.40
2018-02-09T06:15:55.317Z,-1.40
2018-02-09T06:18:21.732Z,-1.40
2018-02-09T06:20:48.942Z,-1.40
2018-02-09T06:23:15.302Z,-1.40
2018-02-09T06:25:41.717Z,-1.40
2018-02-09T06:28:08.088Z,-1.30
2018-02-09T06:30:35.237Z,-1.30
2018-02-09T06:33:02.353Z,-1.30
2018-02-09T06:35:28.799Z,-1.30
2018-02-09T06:37:55.182Z,-1.30
2018-02-09T06:40:21.581Z,-1.30
2018-02-09T06:42:48.696Z,-1.20
2018-02-09T06:45:15.186Z,-1.30
2018-02-09T06:47:48.419Z,-1.20
2018-02-09T06:50:14.819Z,-1.20
2018-02-09T06:52:41.190Z,-1.20
2018-02-09T06:55:07.597Z,-1.20
2018-02-09T06:57:34.038Z,-1.10
2018-02-09T07:00:00.458Z,-1.10
2018-02-09T07:02:26.821Z,-1.10
2018-02-09T07:04:53.209Z,-1.00
2018-02-09T07:07:20.314Z,-1.00
2018-02-09T07:09:46.753Z,-1.00
2018-02-09T07:12:13.145Z,-0.90
2018-02-09T07:14:39.552Z,-0.90
2018-02-09T07:17:05.957Z,-0.80
2018-02-09T07:19:32.481Z,-0.70
2018-02-09T07:21:58.861Z,-0.70
2018-02-09T07:24:26.060Z,-0.50
2018-02-09T07:26:52.470Z,-0.60
2018-02-09T07:29:18.862Z,-0.50
2018-02-09T07:31:45.293Z,-0.50
2018-02-09T07:34:11.719Z,-0.40
2018-02-09T07:36:38.125Z,-0.30
2018-02-09T07:39:04.570Z,-0.30
2018-02-09T07:41:31.006Z,-0.20
2018-02-09T07:43:57.441Z,-0.10
2018-02-09T07:46:23.966Z,0.00
2018-02-09T07:48:50.346Z,0.00
2018-02-09T07:51:16.757Z,0.00
2018-02-09T07:53:43.133Z,0.10
2018-02-09T07:56:10.278Z,0.10
2018-02-09T07:58:37.409Z,0.10
2018-02-09T08:01:03.803Z,0.00
2018-02-09T08:03:30.198Z,0.10
2018-02-09T08:05:57.329Z,0.30
2018-02-09T08:08:23.721Z,0.30
2018-02-09T08:10:50.090Z,0.40
2018-02-09T08:13:16.494Z,0.50
2018-02-09T08:15:42.903Z,0.60
2018-02-09T08:18:09.289Z,0.70
2018-02-09T08:20:35.689Z,0.80
2018-02-09T08:23:02.069Z,0.90
2018-02-09T08:25:28.466Z,1.00
2018-02-09T08:27:54.840Z,0.80
2018-02-09T08:30:21.274Z,1.00
2018-02-09T08:32:48.407Z,0.90
2018-02-09T08:35:14.836Z,0.90
2018-02-09T08:37:41.197Z,0.80
2018-02-09T08:40:08.329Z,0.60
2018-02-09T08:42:34.693Z,0.50
2018-02-09T08:45:01.857Z,0.80
2018-02-09T08:47:28.240Z,0.70
2018-02-09T08:49:54.669Z,0.90
2018-02-09T08:52:21.058Z,1.00
2018-02-09T08:54:47.461Z,1.20
2018-02-09T08:57:13.861Z,1.30
2018-02-09T08:59:40.250Z,1.40
2018-02-09T09:02:07.416Z,1.80
2018-02-09T09:04:33.841Z,1.70
2018-02-09T09:07:00.241Z,1.80
2018-02-09T09:09:26.714Z,1.90
2018-02-09T09:11:53.133Z,2.10
2018-02-09T09:14:20.293Z,2.00
2018-02-09T09:16:46.682Z,1.90
2018-02-09T09:19:13.097Z,2.00
2018-02-09T09:21:39.489Z,2.00
2018-02-09T09:24:06.650Z,2.30
2018-02-09T09:26:33.032Z,2.30
2018-02-09T09:28:59.457Z,2.30
2018-02-09T09:31:25.844Z,2.40
2018-02-09T09:33:53.042Z,2.30
2018-02-09T09:36:19.433Z,2.30
2018-02-09T09:38:46.601Z,2.50
2018-02-09T09:41:13.022Z,2.40
2018-02-09T09:43:39.410Z,2.50
2018-02-09T09:46:05.843Z,2.50
2018-02-09T09:48:32.234Z,2.70
2018-02-09T09:50:58.632Z,2.70
2018-02-09T09:53:25.015Z,2.90
2018-02-09T09:55:51.403Z,2.90
2018-02-09T09:58:18.542Z,2.90
2018-02-09T10:00:44.934Z,2.80
2018-02-09T10:03:11.390Z,2.80
2018-02-09T10:05:37.792Z,2.80
2018-02-09T10:08:04.203Z,2.70
2018-02-09T10:10:31.324Z,2.60
2018-02-09T10:12:57.730Z,2.50
2018-02-09T10:15:24.137Z,2.60
2018-02-09T10:17:57.705Z,2.60
2018-02-09T10:20:24.122Z,2.50
2018-02-09T10:22:50.508Z,2.20
2018-02-09T10:25:16.949Z,2.20
2018-02-09T10:27:43.349Z,2.60
2018-02-09T10:30:10.500Z,2.60
2018-02-09T10:32:37.621Z,2.50
2018-02-09T10:35:04.025Z,2.50
2018-02-09T10:37:30.424Z,2.40
2018-02-09T10:39:57.555Z,2.40
2018-02-09T10:42:23.965Z,2.30
2018-02-09T10:44:50.338Z,2.50
2018-02-09T10:47:17.494Z,2.50
2018-02-09T10:49:43.889Z,2.50
2018-02-09T10:52:10.277Z,2.60
2018-02-09T10:54:37.380Z,2.60
2018-02-09T10:57:03.769Z,2.60
2018-02-09T10:59:30.172Z,2.80
2018-02-09T11:01:57.290Z,3.30
2018-02-09T11:04:23.694Z,3.30
2018-02-09T11:06:50.069Z,3.60
2018-02-09T11:09:22.434Z,3.30
2018-02-09T11:11:48.862Z,3.40
2018-02-09T11:14:15.261Z,3.60
2018-02-09T11:16:41.628Z,3.80
2018-02-09T11:19:08.024Z,3.80
2018-02-09T11:21:34.417Z,4.00
2018-02-09T11:24:00.825Z,3.70
2018-02-09T11:26:27.206Z,3.70
2018-02-09T11:28:54.339Z,3.80
2018-02-09T11:31:21.545Z,4.00
2018-02-09T11:33:47.912Z,3.90
2018-02-09T11:36:14.316Z,3.90
2018-02-09T11:38:40.690Z,4.00
2018-02-09T11:41:07.093Z,3.90
2018-02-09T11:43:33.494Z,3.90
2018-02-09T11:45:59.885Z,3.90
2018-02-09T11:48:26.280Z,4.00
2018-02-09T11:50:52.651Z,4.00
2018-02-09T11:53:19.053Z,4.20
2018-02-09T11:55:45.420Z,4.10
2018-02-09T11:58:11.816Z,4.20
2018-02-09T12:00:38.249Z,4.00
2018-02-09T12:03:04.616Z,3.90
2018-02-09T12:05:31.040Z,3.80
2018-02-09T12:07:57.498Z,3.70
2018-02-09T12:10:23.899Z,3.70
2018-02-09T12:12:50.276Z,3.40
2018-02-09T12:15:17.450Z,3.50
2018-02-09T12:17:43.849Z,3.50
2018-02-09T12:20:10.966Z,3.70
2018-02-09T12:22:37.370Z,3.70
2018-02-09T12:25:03.833Z,3.70
2018-02-09T12:27:30.253Z,3.70
2018-02-09T12:29:56.616Z,3.60
2018-02-09T12:32:23.010Z,3.40
2018-02-09T12:34:56.212Z,3.00
2018-02-09T12:37:22.606Z,2.90
2018-02-09T12:39:48.985Z,3.10
2018-02-09T12:42:15.381Z,3.00
2018-02-09T12:44:42.538Z,3.20
2018-02-09T12:47:09.705Z,3.20
2018-02-09T12:49:36.117Z,3.20
2018-02-09T12:52:03.243Z,3.30
2018-02-09T12:54:29.648Z,3.30
2018-02-09T12:56:56.030Z,3.30
2018-02-09T12:59:22.429Z,3.50
2018-02-09T13:01:48.834Z,3.40
2018-02-09T13:04:15.234Z,3.30
2018-02-09T13:06:42.362Z,3.10
2018-02-09T13:09:08.761Z,3.10
2018-02-09T13:11:35.144Z,3.10
2018-02-09T13:14:01.587Z,3.20
2018-02-09T13:16:27.958Z,3.00
2018-02-09T13:18:54.403Z,2.80
2018-02-09T13:21:20.775Z,2.60
2018-02-09T13:23:59.558Z,2.50
2018-02-09T13:26:25.942Z,2.50
2018-02-09T13:28:59.321Z,2.40
2018-02-09T13:31:25.592Z,2.20
2018-02-09T13:33:52.532Z,1.80
2018-02-09T13:39:09.445Z,1.80
2018-02-09T13:41:35.664Z,1.80
2018-02-09T13:44:01.902Z,1.90
2018-02-09T13:46:28.122Z,2.00
2018-02-09T13:48:54.382Z,1.90
2018-02-09T13:51:21.386Z,2.00
2018-02-09T13:53:47.628Z,2.00
2018-02-09T13:56:13.832Z,2.00
2018-02-09T13:58:40.048Z,1.80
2018-02-09T14:01:06.252Z,1.60
2018-02-09T14:03:33.237Z,1.50
2018-02-09T14:05:59.431Z,1.50
2018-02-09T14:08:26.397Z,1.70
2018-02-09T14:10:52.621Z,1.60
2018-02-09T14:13:18.861Z,1.60
2018-02-09T14:15:45.068Z,1.40
2018-02-09T14:18:12.032Z,1.20
2018-02-09T14:20:38.236Z,1.20
2018-02-09T14:23:05.228Z,1.30
2018-02-09T14:25:31.478Z,1.20
2018-02-09T14:27:57.725Z,1.20
2018-02-09T14:30:23.932Z,1.20
2018-02-09T14:32:50.175Z,1.30
2018-02-09T14:35:16.405Z,1.00
2018-02-09T14:37:42.603Z,1.00
2018-02-09T14:40:08.882Z,1.00
2018-02-09T14:42:35.142Z,0.90
2018-02-09T14:45:01.365Z,0.90
2018-02-09T14:47:28.352Z,1.10
2018-02-09T14:49:54.572Z,1.10
2018-02-09T14:52:20.849Z,1.20
2018-02-09T14:54:47.114Z,1.10
2018-02-09T14:57:13.358Z,1.10
2018-02-09T14:59:39.613Z,1.10
2018-02-09T15:02:05.848Z,0.80
2018-02-09T15:04:32.145Z,0.60
2018-02-09T15:06:58.360Z,0.50
2018-02-09T15:09:25.531Z,0.50
2018-02-09T15:11:51.768Z,0.50
2018-02-09T15:14:17.996Z,0.40
2018-02-09T15:16:44.221Z,0.40
2018-02-09T15:19:10.463Z,0.40
2018-02-09T15:21:36.675Z,0.40
2018-02-09T15:24:02.895Z,0.40
2018-02-09T15:26:29.120Z,0.30
2018-02-09T15:28:56.055Z,0.20
2018-02-09T15:31:23.019Z,0.20
2018-02-09T15:33:49.248Z,0.10
2018-02-09T15:36:15.444Z,0.10
2018-02-09T15:38:41.664Z,0.10
2018-02-09T15:41:07.907Z,0.10
2018-02-09T15:43:34.248Z,0.10
2018-02-09T15:46:01.213Z,0.00
2018-02-09T15:48:28.204Z,0.00
2018-02-09T15:50:54.440Z,-0.10
2018-02-09T15:53:20.727Z,-0.10
2018-02-09T15:55:47.023Z,-0.10
2018-02-09T15:58:13.272Z,-0.10
2018-02-09T16:00:40.301Z,-0.10
2018-02-09T16:03:06.754Z,-0.10
2018-02-09T16:05:33.055Z,-0.10
2018-02-09T16:07:59.257Z,-0.10
2018-02-09T16:10:25.519Z,-0.10
2018-02-09T16:12:51.721Z,0.00
2018-02-09T16:15:17.968Z,0.00
2018-02-09T16:17:44.188Z,0.00
2018-02-09T16:20:10.489Z,0.00
2018-02-09T16:22:36.710Z,0.00
2018-02-09T16:25:02.974Z,0.00
2018-02-09T16:27:29.213Z,-0.10
2018-02-09T16:29:55.475Z,-0.10
2018-02-09T16:32:21.727Z,-0.10
2018-02-09T16:34:48.665Z,-0.20
2018-02-09T16:37:15.644Z,-0.20
2018-02-09T16:39:41.873Z,-0.30
2018-02-09T16:42:08.113Z,-0.30
2018-02-09T16:44:34.340Z,-0.30
2018-02-09T16:47:00.566Z,-0.30
2018-02-09T16:49:26.765Z,-0.30
2018-02-09T16:51:53.700Z,-0.30
2018-02-09T16:54:19.940Z,-0.30
2018-02-09T16:56:46.895Z,-0.30
2018-02-09T16:59:13.887Z,-0.30
2018-02-09T17:01:40.095Z,-0.30
2018-02-09T17:04:06.329Z,-0.30
2018-02-09T17:06:32.553Z,-0.30
2018-02-09T17:08:58.776Z,-0.30
2018-02-09T17:11:25.049Z,-0.40
2018-02-09T17:13:53.935Z,-0.40
2018-02-09T17:16:22.903Z,-0.40
2018-02-09T17:18:51.520Z,-0.40
2018-02-09T17:21:19.915Z,-0.40
2018-02-09T17:23:49.020Z,-0.40
2018-02-09T17:26:18.450Z,-0.40
2018-02-09T17:28:47.400Z,-0.50
2018-02-09T17:31:16.443Z,-0.40
2018-02-09T17:33:45.001Z,-0.50
2018-02-09T17:36:14.720Z,-0.40
2018-02-09T17:38:43.882Z,-0.40
2018-02-09T17:41:12.611Z,-0.50
2018-02-09T17:43:39.670Z,-0.50
2018-02-09T17:46:06.622Z,-0.40
2018-02-09T17:48:32.848Z,-0.50
2018-02-09T17:50:59.064Z,-0.50
2018-02-09T17:53:26.044Z,-0.50
2018-02-09T17:55:52.289Z,-0.60
2018-02-09T17:59:53.646Z,-0.60
2018-02-09T18:02:20.033Z,-0.60
2018-02-09T18:04:47.184Z,-0.60
2018-02-09T18:07:15.781Z,-0.60
2018-02-09T18:09:42.931Z,-0.60
2018-02-09T18:12:10.061Z,-0.60
2018-02-09T18:14:36.488Z,-0.70
2018-02-09T18:17:02.974Z,-0.70
2018-02-09T18:19:29.408Z,-0.60
2018-02-09T18:21:55.858Z,-0.60
2018-02-09T18:24:22.353Z,-0.60
2018-02-09T18:26:49.517Z,-0.60
2018-02-09T18:29:15.927Z,-0.60
2018-02-09T18:31:43.073Z,-0.60
2018-02-09T18:34:09.533Z,-0.70
2018-02-09T18:36:36.644Z,-0.60
2018-02-09T18:39:03.430Z,-0.70
2018-02-09T18:41:29.823Z,-0.60
2018-02-09T18:43:56.239Z,-0.60
2018-02-09T18:46:22.644Z,-0.60
2018-02-09T18:48:49.069Z,-0.60
2018-02-09T18:51:17.641Z,-0.60
2018-02-09T18:53:47.045Z,-0.60
2018-02-09T18:56:16.184Z,-0.60
2018-02-09T18:58:44.652Z,-0.70
2018-02-09T19:01:12.692Z,-0.60
2018-02-09T19:03:41.136Z,-0.60
2018-02-09T19:06:09.549Z,-0.70
2018-02-09T19:08:38.701Z,-0.60
2018-02-09T19:11:07.944Z,-0.70
2018-02-09T19:13:37.251Z,-0.60
2018-02-09T19:16:06.352Z,-0.60
2018-02-09T19:18:34.300Z,-0.70
2018-02-09T19:21:02.462Z,-0.60
2018-02-09T19:23:30.014Z,-0.70
2018-02-09T19:25:58.526Z,-0.60
2018-02-09T19:28:26.994Z,-0.60
2018-02-09T19:30:55.356Z,-0.60
2018-02-09T19:33:23.985Z,-0.70
2018-02-09T19:35:53.090Z,-0.70
2018-02-09T19:38:22.170Z,-0.60
2018-02-09T19:40:50.665Z,-0.70
2018-02-09T19:43:20.056Z,-0.70
2018-02-09T19:45:48.809Z,-0.70
2018-02-09T19:48:17.425Z,-0.70
2018-02-09T19:50:45.666Z,-0.70
2018-02-09T19:53:13.724Z,-0.60
2018-02-09T19:55:42.647Z,-0.60
2018-02-09T19:58:11.386Z,-0.60
2018-02-09T20:00:40.732Z,-0.70
2018-02-09T20:03:07.163Z,-0.70
2018-02-09T20:05:33.553Z,-0.70
2018-02-09T20:08:00.739Z,-0.70
2018-02-09T20:10:27.154Z,-0.70
2018-02-09T20:12:53.557Z,-0.70
2018-02-09T20:15:19.977Z,-0.70
2018-02-09T20:17:46.368Z,-0.70
2018-02-09T20:20:12.778Z,-0.70
2018-02-09T20:22:39.933Z,-0.70
2018-02-09T20:25:07.118Z,-0.70
2018-02-09T20:27:33.489Z,-0.80
2018-02-09T20:29:59.886Z,-0.70
2018-02-09T20:32:26.294Z,-0.70
2018-02-09T20:34:52.673Z,-0.70
2018-02-09T20:37:19.090Z,-0.70
2018-02-09T20:39:45.490Z,-0.70
2018-02-09T20:42:12.656Z,-0.70
2018-02-09T20:44:39.149Z,-0.80
2018-02-09T20:47:05.573Z,-0.70
2018-02-09T20:49:31.985Z,-0.70
2018-02-09T20:51:58.407Z,-0.70
2018-02-09T20:54:25.243Z,-0.70
2018-02-09T20:56:51.854Z,-0.70
2018-02-09T20:59:19.090Z,-0.70
2018-02-09T21:01:46.321Z,-0.70
2018-02-09T21:04:12.807Z,-0.70
2018-02-09T21:06:39.950Z,-0.70
2018-02-09T21:09:07.173Z,-0.70
2018-02-09T21:11:33.594Z,-0.70
2018-02-09T21:14:00.062Z,-0.70
2018-02-09T21:16:27.295Z,-0.70
2018-02-09T21:18:53.725Z,-0.70
2018-02-09T21:21:20.190Z,-0.70
2018-02-09T21:23:47.306Z,-0.70
2018-02-09T21:26:13.774Z,-0.70
2018-02-09T21:28:40.914Z,-0.70
2018-02-09T21:31:07.429Z,-0.70
2018-02-09T21:33:33.811Z,-0.70
2018-02-09T21:36:00.983Z,-0.70
2018-02-09T21:38:27.451Z,-0.70
2018-02-09T21:40:53.883Z,-0.70
2018-02-09T21:43:20.327Z,-0.70
2018-02-09T21:45:47.516Z,-0.70
2018-02-09T21:48:14.697Z,-0.70
2018-02-09T21:50:41.154Z,-0.80
2018-02-09T21:53:07.561Z,-0.70
2018-02-09T21:55:34.042Z,-0.70
2018-02-09T21:58:00.442Z,-0.70
2018-02-09T22:00:26.931Z,-0.70
2018-02-09T22:02:54.052Z,-0.70
2018-02-09T22:05:20.469Z,-0.70
2018-02-09T22:07:46.858Z,-0.70
2018-02-09T22:10:14.025Z,-0.70
2018-02-09T22:12:40.425Z,-0.70
2018-02-09T22:15:06.899Z,-0.70
2018-02-09T22:17:33.308Z,-0.70
2018-02-09T22:20:00.464Z,-0.70
2018-02-09T22:22:27.617Z,-0.70
2018-02-09T22:24:54.754Z,-0.70
2018-02-09T22:27:21.147Z,-0.80
2018-02-09T22:29:47.565Z,-0.70
2018-02-09T22:32:13.952Z,-0.70
2018-02-09T22:34:40.368Z,-0.70
2018-02-09T22:37:06.771Z,-0.70
2018-02-09T22:39:33.190Z,-0.70
2018-02-09T22:41:59.634Z,-0.70
2018-02-09T22:44:26.086Z,-0.70
2018-02-09T22:46:52.473Z,-0.70
2018-02-09T22:49:19.660Z,-0.70
2018-02-09T22:51:46.063Z,-0.70
2018-02-09T22:54:13.219Z,-0.70
2018-02-09T22:56:40.363Z,-0.70
2018-02-09T22:59:07.556Z,-0.70
2018-02-09T23:01:34.001Z,-0.80
2018-02-09T23:04:00.596Z,-0.70
2018-02-09T23:06:27.822Z,-0.70
2018-02-09T23:08:54.341Z,-0.80
2018-02-09T23:11:20.769Z,-0.70
2018-02-09T23:13:47.192Z,-0.70
2018-02-09T23:16:13.590Z,-0.70
2018-02-09T23:18:40.010Z,-0.80
2018-02-09T23:21:07.134Z,-0.80
2018-02-09T23:23:33.545Z,-0.80
2018-02-09T23:25:59.929Z,-0.80
2018-02-09T23:28:27.085Z,-0.80
2018-02-09T23:30:54.217Z,-0.80
2018-02-09T23:33:20.617Z,-0.90
2018-02-09T23:35:47.094Z,-0.80
2018-02-09T23:38:14.314Z,-0.90
2018-02-09T23:40:40.765Z,-0.90
2018-02-09T23:43:07.214Z,-0.90
2018-02-09T23:45:33.672Z,-0.90
2018-02-09T23:48:00.821Z,-0.90
2018-02-09T23:50:27.969Z,-1.00
2018-02-09T23:52:55.091Z,-1.00
2018-02-09T23:55:21.500Z,-1.00
2018-02-09T23:57:47.878Z,-1.00
